Terminal Aerodrome Forecast
Issued by NWS

Home | Current Version | Previous Version | Text Only | Print | Product List | Glossary On
Versions: 1 2 3 4 5 6 7 8 9 10 11 12 13 14
000
FTUS43 KEAX 021700
TAFMKC
TAF
KMKC 021727Z 0218/0318 17006KT P6SM OVC100
     FM022000 18008KT P6SM VCSH BKN070
     FM022200 17008KT P6SM SCT100
     FM031400 19014G22KT P6SM SKC=

USA.gov is the U.S. government's official web portal to all federal, state and local government web resources and services.